sensor_id;sensor_type;location;lat;lon;timestamp;P1;durP1;ratioP1;P2;durP2;ratioP2
20890;SDS011;10605;52.968;8.844;2022-07-15T00:00:08;10.15;;;2.78;;
20890;SDS011;10605;52.968;8.844;2022-07-15T00:02:35;7.18;;;2.25;;
20890;SDS011;10605;52.968;8.844;2022-07-15T00:05:02;8.15;;;2.13;;
20890;SDS011;10605;52.968;8.844;2022-07-15T00:07:28;8.55;;;1.90;;
20890;SDS011;10605;52.968;8.844;2022-07-15T00:09:54;5.18;;;2.38;;
20890;SDS011;10605;52.968;8.844;2022-07-15T00:12:38;7.63;;;2.30;;
20890;SDS011;10605;52.968;8.844;2022-07-15T00:15:04;13.10;;;2.70;;
20890;SDS011;10605;52.968;8.844;2022-07-15T00:17:32;4.57;;;1.95;;
20890;SDS011;10605;52.968;8.844;2022-07-15T00:19:57;6.57;;;2.22;;
20890;SDS011;10605;52.968;8.844;2022-07-15T00:22:23;8.82;;;1.90;;
20890;SDS011;10605;52.968;8.844;2022-07-15T00:24:49;4.60;;;1.80;;
20890;SDS011;10605;52.968;8.844;2022-07-15T00:27:14;8.52;;;2.55;;
20890;SDS011;10605;52.968;8.844;2022-07-15T00:29:40;7.28;;;2.22;;
20890;SDS011;10605;52.968;8.844;2022-07-15T00:32:05;7.60;;;2.17;;
20890;SDS011;10605;52.968;8.844;2022-07-15T00:34:31;7.90;;;1.90;;
20890;SDS011;10605;52.968;8.844;2022-07-15T00:36:57;7.32;;;1.90;;
20890;SDS011;10605;52.968;8.844;2022-07-15T00:39:23;10.18;;;2.28;;
20890;SDS011;10605;52.968;8.844;2022-07-15T00:41:48;8.43;;;1.85;;
20890;SDS011;10605;52.968;8.844;2022-07-15T00:44:14;7.15;;;2.00;;
20890;SDS011;10605;52.968;8.844;2022-07-15T00:46:39;7.40;;;1.83;;
20890;SDS011;10605;52.968;8.844;2022-07-15T00:49:07;5.40;;;2.10;;
20890;SDS011;10605;52.968;8.844;2022-07-15T00:51:34;12.38;;;2.47;;
20890;SDS011;10605;52.968;8.844;2022-07-15T00:54:02;7.53;;;2.28;;
20890;SDS011;10605;52.968;8.844;2022-07-15T00:56:31;8.85;;;2.10;;
20890;SDS011;10605;52.968;8.844;2022-07-15T00:59:02;7.95;;;1.90;;
20890;SDS011;10605;52.968;8.844;2022-07-15T01:01:30;13.02;;;2.58;;
20890;SDS011;10605;52.968;8.844;2022-07-15T01:03:57;7.25;;;2.13;;
20890;SDS011;10605;52.968;8.844;2022-07-15T01:06:24;10.40;;;1.83;;
20890;SDS011;10605;52.968;8.844;2022-07-15T01:08:53;8.20;;;2.13;;
20890;SDS011;10605;52.968;8.844;2022-07-15T01:11:18;10.60;;;2.47;;
20890;SDS011;10605;52.968;8.844;2022-07-15T01:13:45;6.75;;;1.92;;
20890;SDS011;10605;52.968;8.844;2022-07-15T01:16:11;7.80;;;2.00;;
20890;SDS011;10605;52.968;8.844;2022-07-15T01:18:36;13.48;;;1.98;;
20890;SDS011;10605;52.968;8.844;2022-07-15T01:21:03;13.68;;;2.47;;
20890;SDS011;10605;52.968;8.844;2022-07-15T01:23:28;10.52;;;2.20;;
20890;SDS011;10605;52.968;8.844;2022-07-15T01:25:54;9.70;;;1.70;;
20890;SDS011;10605;52.968;8.844;2022-07-15T01:28:21;7.43;;;2.10;;
20890;SDS011;10605;52.968;8.844;2022-07-15T01:30:47;10.90;;;2.38;;
20890;SDS011;10605;52.968;8.844;2022-07-15T01:33:13;8.82;;;2.60;;
20890;SDS011;10605;52.968;8.844;2022-07-15T01:35:39;10.07;;;1.98;;
20890;SDS011;10605;52.968;8.844;2022-07-15T01:38:05;7.75;;;2.05;;
20890;SDS011;10605;52.968;8.844;2022-07-15T01:40:30;7.22;;;2.15;;
20890;SDS011;10605;52.968;8.844;2022-07-15T01:42:56;12.27;;;2.05;;
20890;SDS011;10605;52.968;8.844;2022-07-15T01:45:22;8.80;;;1.90;;
20890;SDS011;10605;52.968;8.844;2022-07-15T01:47:48;8.88;;;2.10;;
20890;SDS011;10605;52.968;8.844;2022-07-15T01:50:15;10.48;;;2.05;;
20890;SDS011;10605;52.968;8.844;2022-07-15T01:52:40;7.65;;;2.25;;
20890;SDS011;10605;52.968;8.844;2022-07-15T01:55:07;9.65;;;2.05;;
20890;SDS011;10605;52.968;8.844;2022-07-15T01:57:33;13.65;;;2.70;;
20890;SDS011;10605;52.968;8.844;2022-07-15T01:59:59;18.00;;;2.05;;
20890;SDS011;10605;52.968;8.844;2022-07-15T02:02:25;5.72;;;1.80;;
20890;SDS011;10605;52.968;8.844;2022-07-15T02:04:51;6.68;;;1.90;;
20890;SDS011;10605;52.968;8.844;2022-07-15T02:07:17;8.77;;;1.90;;
20890;SDS011;10605;52.968;8.844;2022-07-15T02:09:43;7.80;;;2.20;;
20890;SDS011;10605;52.968;8.844;2022-07-15T02:12:09;6.80;;;1.98;;
20890;SDS011;10605;52.968;8.844;2022-07-15T02:14:34;7.75;;;1.73;;
20890;SDS011;10605;52.968;8.844;2022-07-15T02:17:03;10.30;;;1.58;;
20890;SDS011;10605;52.968;8.844;2022-07-15T02:19:29;11.57;;;2.20;;
20890;SDS011;10605;52.968;8.844;2022-07-15T02:21:54;7.05;;;1.80;;
20890;SDS011;10605;52.968;8.844;2022-07-15T02:24:20;6.47;;;1.90;;
20890;SDS011;10605;52.968;8.844;2022-07-15T02:26:46;9.60;;;2.05;;
20890;SDS011;10605;52.968;8.844;2022-07-15T02:29:13;9.40;;;2.10;;
20890;SDS011;10605;52.968;8.844;2022-07-15T02:31:39;7.25;;;1.90;;
20890;SDS011;10605;52.968;8.844;2022-07-15T02:34:05;9.07;;;2.15;;
20890;SDS011;10605;52.968;8.844;2022-07-15T02:36:31;3.22;;;2.00;;
20890;SDS011;10605;52.968;8.844;2022-07-15T02:38:57;8.40;;;2.28;;
20890;SDS011;10605;52.968;8.844;2022-07-15T02:41:22;4.90;;;1.70;;
20890;SDS011;10605;52.968;8.844;2022-07-15T02:43:48;13.77;;;2.30;;
20890;SDS011;10605;52.968;8.844;2022-07-15T02:46:14;6.72;;;1.90;;
20890;SDS011;10605;52.968;8.844;2022-07-15T02:48:40;4.03;;;1.98;;
20890;SDS011;10605;52.968;8.844;2022-07-15T02:51:06;6.65;;;1.60;;
20890;SDS011;10605;52.968;8.844;2022-07-15T02:53:33;9.13;;;2.58;;
20890;SDS011;10605;52.968;8.844;2022-07-15T02:55:59;8.07;;;2.05;;
20890;SDS011;10605;52.968;8.844;2022-07-15T02:58:26;5.28;;;1.75;;
20890;SDS011;10605;52.968;8.844;2022-07-15T03:00:53;7.70;;;1.42;;
20890;SDS011;10605;52.968;8.844;2022-07-15T03:03:19;5.47;;;1.65;;
20890;SDS011;10605;52.968;8.844;2022-07-15T03:05:45;6.82;;;1.80;;
20890;SDS011;10605;52.968;8.844;2022-07-15T03:08:11;6.45;;;2.45;;
20890;SDS011;10605;52.968;8.844;2022-07-15T03:10:36;14.02;;;2.05;;
20890;SDS011;10605;52.968;8.844;2022-07-15T03:13:02;14.48;;;2.03;;
20890;SDS011;10605;52.968;8.844;2022-07-15T03:15:28;11.88;;;2.17;;
20890;SDS011;10605;52.968;8.844;2022-07-15T03:17:53;6.07;;;1.63;;
20890;SDS011;10605;52.968;8.844;2022-07-15T03:20:19;11.48;;;1.83;;
20890;SDS011;10605;52.968;8.844;2022-07-15T03:22:45;10.82;;;2.20;;
20890;SDS011;10605;52.968;8.844;2022-07-15T03:25:10;10.00;;;2.30;;
20890;SDS011;10605;52.968;8.844;2022-07-15T03:27:36;8.80;;;1.60;;
20890;SDS011;10605;52.968;8.844;2022-07-15T03:30:03;7.15;;;1.92;;
20890;SDS011;10605;52.968;8.844;2022-07-15T03:32:29;6.30;;;2.08;;
20890;SDS011;10605;52.968;8.844;2022-07-15T03:34:54;12.23;;;1.80;;
20890;SDS011;10605;52.968;8.844;2022-07-15T03:37:22;11.93;;;2.10;;
20890;SDS011;10605;52.968;8.844;2022-07-15T03:39:48;9.18;;;1.88;;
20890;SDS011;10605;52.968;8.844;2022-07-15T03:42:13;8.93;;;2.28;;
20890;SDS011;10605;52.968;8.844;2022-07-15T03:44:39;20.40;;;2.33;;
20890;SDS011;10605;52.968;8.844;2022-07-15T03:47:04;13.82;;;2.88;;
20890;SDS011;10605;52.968;8.844;2022-07-15T03:49:30;16.38;;;1.95;;
20890;SDS011;10605;52.968;8.844;2022-07-15T03:51:56;7.57;;;2.25;;
20890;SDS011;10605;52.968;8.844;2022-07-15T03:54:21;10.68;;;2.00;;
20890;SDS011;10605;52.968;8.844;2022-07-15T03:56:47;21.35;;;1.98;;
20890;SDS011;10605;52.968;8.844;2022-07-15T03:59:14;7.63;;;1.70;;
20890;SDS011;10605;52.968;8.844;2022-07-15T04:01:41;8.00;;;2.08;;
20890;SDS011;10605;52.968;8.844;2022-07-15T04:04:06;7.72;;;2.20;;
20890;SDS011;10605;52.968;8.844;2022-07-15T04:06:33;11.23;;;1.40;;
20890;SDS011;10605;52.968;8.844;2022-07-15T04:08:59;8.65;;;1.60;;
20890;SDS011;10605;52.968;8.844;2022-07-15T04:11:25;8.02;;;2.08;;
20890;SDS011;10605;52.968;8.844;2022-07-15T04:13:51;6.22;;;1.50;;
20890;SDS011;10605;52.968;8.844;2022-07-15T04:16:16;4.30;;;1.90;;
20890;SDS011;10605;52.968;8.844;2022-07-15T04:18:42;5.00;;;1.92;;
20890;SDS011;10605;52.968;8.844;2022-07-15T04:21:07;10.10;;;1.83;;
20890;SDS011;10605;52.968;8.844;2022-07-15T04:23:33;8.15;;;1.50;;
20890;SDS011;10605;52.968;8.844;2022-07-15T04:25:59;5.82;;;1.70;;
20890;SDS011;10605;52.968;8.844;2022-07-15T04:28:25;9.52;;;1.55;;
20890;SDS011;10605;52.968;8.844;2022-07-15T04:30:51;6.82;;;1.77;;
20890;SDS011;10605;52.968;8.844;2022-07-15T04:33:17;7.32;;;1.95;;
20890;SDS011;10605;52.968;8.844;2022-07-15T04:35:44;4.60;;;1.75;;
20890;SDS011;10605;52.968;8.844;2022-07-15T04:38:10;8.45;;;1.65;;
20890;SDS011;10605;52.968;8.844;2022-07-15T04:40:36;7.47;;;1.70;;
20890;SDS011;10605;52.968;8.844;2022-07-15T04:43:05;5.25;;;1.52;;
20890;SDS011;10605;52.968;8.844;2022-07-15T04:45:31;4.30;;;1.48;;
20890;SDS011;10605;52.968;8.844;2022-07-15T04:47:57;10.07;;;1.60;;
20890;SDS011;10605;52.968;8.844;2022-07-15T04:50:23;9.10;;;1.38;;
20890;SDS011;10605;52.968;8.844;2022-07-15T04:53:07;6.88;;;1.30;;
20890;SDS011;10605;52.968;8.844;2022-07-15T04:55:33;6.30;;;1.70;;
20890;SDS011;10605;52.968;8.844;2022-07-15T04:57:59;6.93;;;1.42;;
20890;SDS011;10605;52.968;8.844;2022-07-15T05:00:24;5.10;;;1.75;;
20890;SDS011;10605;52.968;8.844;2022-07-15T05:02:50;6.63;;;1.25;;
20890;SDS011;10605;52.968;8.844;2022-07-15T05:05:16;5.28;;;1.65;;
20890;SDS011;10605;52.968;8.844;2022-07-15T05:07:41;7.43;;;1.15;;
20890;SDS011;10605;52.968;8.844;2022-07-15T05:10:07;14.15;;;1.75;;
20890;SDS011;10605;52.968;8.844;2022-07-15T05:12:34;10.02;;;1.70;;
20890;SDS011;10605;52.968;8.844;2022-07-15T05:15:00;16.35;;;2.00;;
20890;SDS011;10605;52.968;8.844;2022-07-15T05:17:27;10.07;;;1.80;;
20890;SDS011;10605;52.968;8.844;2022-07-15T05:19:53;6.88;;;1.50;;
20890;SDS011;10605;52.968;8.844;2022-07-15T05:22:19;7.80;;;1.90;;
20890;SDS011;10605;52.968;8.844;2022-07-15T05:24:45;5.60;;;1.40;;
20890;SDS011;10605;52.968;8.844;2022-07-15T05:27:11;5.47;;;1.20;;
20890;SDS011;10605;52.968;8.844;2022-07-15T05:29:37;9.40;;;1.83;;
20890;SDS011;10605;52.968;8.844;2022-07-15T05:32:02;6.20;;;1.20;;
20890;SDS011;10605;52.968;8.844;2022-07-15T05:34:28;7.43;;;1.33;;
20890;SDS011;10605;52.968;8.844;2022-07-15T05:36:54;7.07;;;1.30;;
20890;SDS011;10605;52.968;8.844;2022-07-15T05:39:19;7.28;;;1.65;;
20890;SDS011;10605;52.968;8.844;2022-07-15T05:41:45;5.63;;;1.17;;
20890;SDS011;10605;52.968;8.844;2022-07-15T05:44:12;5.28;;;1.05;;
20890;SDS011;10605;52.968;8.844;2022-07-15T05:46:37;4.75;;;1.05;;
20890;SDS011;10605;52.968;8.844;2022-07-15T05:49:03;4.80;;;1.40;;
20890;SDS011;10605;52.968;8.844;2022-07-15T05:51:28;7.28;;;1.42;;
20890;SDS011;10605;52.968;8.844;2022-07-15T05:53:54;6.65;;;1.00;;
20890;SDS011;10605;52.968;8.844;2022-07-15T05:56:20;6.25;;;1.00;;
20890;SDS011;10605;52.968;8.844;2022-07-15T05:58:47;9.20;;;1.42;;
20890;SDS011;10605;52.968;8.844;2022-07-15T06:01:13;4.13;;;1.00;;
20890;SDS011;10605;52.968;8.844;2022-07-15T06:03:38;7.90;;;1.48;;
20890;SDS011;10605;52.968;8.844;2022-07-15T06:06:04;6.88;;;1.05;;
20890;SDS011;10605;52.968;8.844;2022-07-15T06:08:31;7.93;;;0.95;;
20890;SDS011;10605;52.968;8.844;2022-07-15T06:10:57;5.03;;;0.90;;
20890;SDS011;10605;52.968;8.844;2022-07-15T06:13:23;6.10;;;1.20;;
20890;SDS011;10605;52.968;8.844;2022-07-15T06:15:48;5.70;;;1.30;;
20890;SDS011;10605;52.968;8.844;2022-07-15T06:18:14;3.05;;;0.95;;
20890;SDS011;10605;52.968;8.844;2022-07-15T06:20:41;9.50;;;1.13;;
20890;SDS011;10605;52.968;8.844;2022-07-15T06:23:06;4.55;;;0.98;;
20890;SDS011;10605;52.968;8.844;2022-07-15T06:25:32;12.48;;;1.45;;
20890;SDS011;10605;52.968;8.844;2022-07-15T06:27:57;6.03;;;0.98;;
20890;SDS011;10605;52.968;8.844;2022-07-15T06:30:23;3.95;;;1.10;;
20890;SDS011;10605;52.968;8.844;2022-07-15T06:32:49;2.63;;;0.57;;
20890;SDS011;10605;52.968;8.844;2022-07-15T06:35:14;2.55;;;0.90;;
20890;SDS011;10605;52.968;8.844;2022-07-15T06:37:40;6.32;;;0.80;;
20890;SDS011;10605;52.968;8.844;2022-07-15T06:40:06;5.45;;;1.10;;
20890;SDS011;10605;52.968;8.844;2022-07-15T06:42:32;4.13;;;0.73;;
20890;SDS011;10605;52.968;8.844;2022-07-15T06:44:58;3.88;;;1.10;;
20890;SDS011;10605;52.968;8.844;2022-07-15T06:47:23;6.40;;;1.10;;
20890;SDS011;10605;52.968;8.844;2022-07-15T06:49:49;5.00;;;0.95;;
20890;SDS011;10605;52.968;8.844;2022-07-15T06:52:16;8.35;;;1.00;;
20890;SDS011;10605;52.968;8.844;2022-07-15T06:54:42;9.63;;;1.00;;
20890;SDS011;10605;52.968;8.844;2022-07-15T06:57:08;3.42;;;0.68;;
20890;SDS011;10605;52.968;8.844;2022-07-15T06:59:34;4.65;;;0.68;;
20890;SDS011;10605;52.968;8.844;2022-07-15T07:02:00;5.03;;;0.82;;
20890;SDS011;10605;52.968;8.844;2022-07-15T07:04:25;4.00;;;0.80;;
20890;SDS011;10605;52.968;8.844;2022-07-15T07:06:51;1.98;;;0.70;;
20890;SDS011;10605;52.968;8.844;2022-07-15T07:09:17;3.13;;;0.70;;
20890;SDS011;10605;52.968;8.844;2022-07-15T07:11:42;8.77;;;0.98;;
20890;SDS011;10605;52.968;8.844;2022-07-15T07:14:08;4.88;;;1.15;;
20890;SDS011;10605;52.968;8.844;2022-07-15T07:16:34;4.82;;;0.90;;
20890;SDS011;10605;52.968;8.844;2022-07-15T07:19:00;3.97;;;1.23;;
20890;SDS011;10605;52.968;8.844;2022-07-15T07:21:25;4.13;;;0.75;;
20890;SDS011;10605;52.968;8.844;2022-07-15T07:23:51;5.20;;;0.68;;
20890;SDS011;10605;52.968;8.844;2022-07-15T07:26:17;3.78;;;0.85;;
20890;SDS011;10605;52.968;8.844;2022-07-15T07:28:43;5.10;;;1.27;;
20890;SDS011;10605;52.968;8.844;2022-07-15T07:31:10;6.78;;;0.65;;
20890;SDS011;10605;52.968;8.844;2022-07-15T07:33:37;5.72;;;0.70;;
20890;SDS011;10605;52.968;8.844;2022-07-15T07:36:04;2.85;;;0.57;;
20890;SDS011;10605;52.968;8.844;2022-07-15T07:38:31;3.38;;;1.23;;
20890;SDS011;10605;52.968;8.844;2022-07-15T07:40:57;1.83;;;0.80;;
20890;SDS011;10605;52.968;8.844;2022-07-15T07:43:23;3.45;;;1.00;;
20890;SDS011;10605;52.968;8.844;2022-07-15T07:45:48;2.10;;;0.85;;
20890;SDS011;10605;52.968;8.844;2022-07-15T07:48:15;5.38;;;0.80;;
20890;SDS011;10605;52.968;8.844;2022-07-15T07:50:44;2.10;;;0.60;;
20890;SDS011;10605;52.968;8.844;2022-07-15T07:53:10;0.70;;;0.40;;
20890;SDS011;10605;52.968;8.844;2022-07-15T07:55:36;3.05;;;1.08;;
20890;SDS011;10605;52.968;8.844;2022-07-15T07:58:02;6.63;;;0.77;;
20890;SDS011;10605;52.968;8.844;2022-07-15T08:00:29;8.25;;;0.80;;
20890;SDS011;10605;52.968;8.844;2022-07-15T08:02:56;4.00;;;0.93;;
20890;SDS011;10605;52.968;8.844;2022-07-15T08:05:23;1.50;;;0.47;;
20890;SDS011;10605;52.968;8.844;2022-07-15T08:07:49;5.55;;;1.58;;
20890;SDS011;10605;52.968;8.844;2022-07-15T08:10:16;1.67;;;0.40;;
20890;SDS011;10605;52.968;8.844;2022-07-15T08:12:44;5.88;;;1.10;;
20890;SDS011;10605;52.968;8.844;2022-07-15T08:15:10;5.85;;;0.90;;
20890;SDS011;10605;52.968;8.844;2022-07-15T08:17:38;7.10;;;1.55;;
20890;SDS011;10605;52.968;8.844;2022-07-15T08:20:07;1.65;;;0.65;;
20890;SDS011;10605;52.968;8.844;2022-07-15T08:22:34;2.88;;;0.70;;
20890;SDS011;10605;52.968;8.844;2022-07-15T08:25:00;2.08;;;0.70;;
20890;SDS011;10605;52.968;8.844;2022-07-15T08:27:26;2.65;;;0.77;;
20890;SDS011;10605;52.968;8.844;2022-07-15T08:29:54;1.13;;;0.40;;
20890;SDS011;10605;52.968;8.844;2022-07-15T08:32:20;2.55;;;0.60;;
20890;SDS011;10605;52.968;8.844;2022-07-15T08:34:46;3.25;;;0.45;;
20890;SDS011;10605;52.968;8.844;2022-07-15T08:37:12;2.00;;;0.60;;
20890;SDS011;10605;52.968;8.844;2022-07-15T08:39:38;2.67;;;0.60;;
20890;SDS011;10605;52.968;8.844;2022-07-15T08:42:05;2.15;;;0.57;;
20890;SDS011;10605;52.968;8.844;2022-07-15T08:44:31;3.38;;;0.80;;
20890;SDS011;10605;52.968;8.844;2022-07-15T08:46:59;3.13;;;0.50;;
20890;SDS011;10605;52.968;8.844;2022-07-15T08:49:29;1.27;;;0.45;;
20890;SDS011;10605;52.968;8.844;2022-07-15T08:51:56;1.75;;;0.40;;
20890;SDS011;10605;52.968;8.844;2022-07-15T08:54:23;3.63;;;0.40;;
20890;SDS011;10605;52.968;8.844;2022-07-15T08:56:49;3.90;;;0.47;;
20890;SDS011;10605;52.968;8.844;2022-07-15T08:59:15;0.88;;;0.32;;
20890;SDS011;10605;52.968;8.844;2022-07-15T09:01:43;1.48;;;0.50;;
20890;SDS011;10605;52.968;8.844;2022-07-15T09:04:12;0.50;;;0.20;;
20890;SDS011;10605;52.968;8.844;2022-07-15T09:06:39;1.25;;;0.40;;
20890;SDS011;10605;52.968;8.844;2022-07-15T09:14:23;1.33;;;0.30;;
20890;SDS011;10605;52.968;8.844;2022-07-15T09:16:58;1.50;;;0.65;;
20890;SDS011;10605;52.968;8.844;2022-07-15T09:19:59;0.70;;;0.30;;
20890;SDS011;10605;52.968;8.844;2022-07-15T09:22:54;2.65;;;0.50;;
20890;SDS011;10605;52.968;8.844;2022-07-15T09:25:21;4.03;;;0.45;;
20890;SDS011;10605;52.968;8.844;2022-07-15T09:27:48;2.67;;;0.38;;
20890;SDS011;10605;52.968;8.844;2022-07-15T09:30:25;2.15;;;0.30;;
20890;SDS011;10605;52.968;8.844;2022-07-15T09:33:12;2.50;;;0.43;;
20890;SDS011;10605;52.968;8.844;2022-07-15T09:46:44;2.00;;;0.38;;
20890;SDS011;10605;52.968;8.844;2022-07-15T09:49:30;1.05;;;0.32;;
20890;SDS011;10605;52.968;8.844;2022-07-15T09:54:34;3.35;;;0.35;;
20890;SDS011;10605;52.968;8.844;2022-07-15T09:57:04;1.65;;;0.40;;
20890;SDS011;10605;52.968;8.844;2022-07-15T09:59:32;0.73;;;0.40;;
20890;SDS011;10605;52.968;8.844;2022-07-15T10:01:58;2.55;;;0.43;;
20890;SDS011;10605;52.968;8.844;2022-07-15T10:04:25;2.90;;;0.65;;
20890;SDS011;10605;52.968;8.844;2022-07-15T10:06:53;3.17;;;0.40;;
20890;SDS011;10605;52.968;8.844;2022-07-15T10:09:21;1.02;;;0.43;;
20890;SDS011;10605;52.968;8.844;2022-07-15T10:11:49;2.90;;;0.50;;
20890;SDS011;10605;52.968;8.844;2022-07-15T10:17:20;1.23;;;0.35;;
20890;SDS011;10605;52.968;8.844;2022-07-15T10:30:38;2.50;;;0.50;;
20890;SDS011;10605;52.968;8.844;2022-07-15T10:38:24;2.10;;;0.40;;
20890;SDS011;10605;52.968;8.844;2022-07-15T10:41:09;1.92;;;0.60;;
20890;SDS011;10605;52.968;8.844;2022-07-15T10:48:44;2.67;;;0.43;;
20890;SDS011;10605;52.968;8.844;2022-07-15T10:54:59;7.40;;;0.50;;
20890;SDS011;10605;52.968;8.844;2022-07-15T10:56:58;2.67;;;0.60;;
20890;SDS011;10605;52.968;8.844;2022-07-15T10:59:25;2.08;;;0.38;;
20890;SDS011;10605;52.968;8.844;2022-07-15T11:04:27;3.25;;;0.50;;
20890;SDS011;10605;52.968;8.844;2022-07-15T11:09:45;0.75;;;0.30;;
20890;SDS011;10605;52.968;8.844;2022-07-15T11:12:15;0.50;;;0.40;;
20890;SDS011;10605;52.968;8.844;2022-07-15T11:14:47;1.25;;;0.22;;
20890;SDS011;10605;52.968;8.844;2022-07-15T11:17:37;0.30;;;0.30;;
20890;SDS011;10605;52.968;8.844;2022-07-15T11:20:09;3.25;;;0.45;;
20890;SDS011;10605;52.968;8.844;2022-07-15T11:22:38;0.68;;;0.20;;
20890;SDS011;10605;52.968;8.844;2022-07-15T11:25:05;0.45;;;0.30;;
20890;SDS011;10605;52.968;8.844;2022-07-15T11:27:41;0.63;;;0.30;;
20890;SDS011;10605;52.968;8.844;2022-07-15T11:30:06;0.98;;;0.20;;
20890;SDS011;10605;52.968;8.844;2022-07-15T11:32:33;1.15;;;0.20;;
20890;SDS011;10605;52.968;8.844;2022-07-15T11:34:59;1.42;;;0.17;;
20890;SDS011;10605;52.968;8.844;2022-07-15T11:37:34;1.35;;;0.30;;
20890;SDS011;10605;52.968;8.844;2022-07-15T11:40:13;0.93;;;0.28;;
20890;SDS011;10605;52.968;8.844;2022-07-15T11:42:59;0.60;;;0.30;;
20890;SDS011;10605;52.968;8.844;2022-07-15T11:45:44;0.47;;;0.20;;
20890;SDS011;10605;52.968;8.844;2022-07-15T11:48:11;1.45;;;0.40;;
20890;SDS011;10605;52.968;8.844;2022-07-15T11:50:48;0.50;;;0.17;;
20890;SDS011;10605;52.968;8.844;2022-07-15T11:53:16;0.73;;;0.20;;
20890;SDS011;10605;52.968;8.844;2022-07-15T11:55:56;3.22;;;0.50;;
20890;SDS011;10605;52.968;8.844;2022-07-15T12:00:53;1.65;;;0.43;;
20890;SDS011;10605;52.968;8.844;2022-07-15T12:03:19;1.83;;;0.43;;
20890;SDS011;10605;52.968;8.844;2022-07-15T12:06:07;0.85;;;0.28;;
20890;SDS011;10605;52.968;8.844;2022-07-15T12:08:33;1.00;;;0.30;;
20890;SDS011;10605;52.968;8.844;2022-07-15T12:11:13;1.30;;;0.35;;
20890;SDS011;10605;52.968;8.844;2022-07-15T12:13:44;0.68;;;0.20;;
20890;SDS011;10605;52.968;8.844;2022-07-15T12:16:12;2.65;;;0.30;;
20890;SDS011;10605;52.968;8.844;2022-07-15T12:18:39;2.00;;;0.30;;
20890;SDS011;10605;52.968;8.844;2022-07-15T12:21:05;4.63;;;0.52;;
20890;SDS011;10605;52.968;8.844;2022-07-15T12:23:31;4.63;;;0.50;;
20890;SDS011;10605;52.968;8.844;2022-07-15T12:26:02;1.17;;;0.20;;
20890;SDS011;10605;52.968;8.844;2022-07-15T12:28:31;1.13;;;0.38;;
20890;SDS011;10605;52.968;8.844;2022-07-15T12:30:58;4.28;;;1.05;;
20890;SDS011;10605;52.968;8.844;2022-07-15T12:33:24;3.00;;;0.40;;
20890;SDS011;10605;52.968;8.844;2022-07-15T12:36:00;2.50;;;0.32;;
20890;SDS011;10605;52.968;8.844;2022-07-15T12:38:37;5.18;;;0.40;;
20890;SDS011;10605;52.968;8.844;2022-07-15T12:41:06;1.10;;;0.35;;
20890;SDS011;10605;52.968;8.844;2022-07-15T12:43:50;0.85;;;0.20;;
20890;SDS011;10605;52.968;8.844;2022-07-15T12:46:30;0.43;;;0.20;;
20890;SDS011;10605;52.968;8.844;2022-07-15T12:52:23;3.55;;;0.38;;
20890;SDS011;10605;52.968;8.844;2022-07-15T12:54:50;2.08;;;0.38;;
20890;SDS011;10605;52.968;8.844;2022-07-15T12:57:22;1.08;;;0.38;;
20890;SDS011;10605;52.968;8.844;2022-07-15T12:59:56;2.45;;;0.22;;
20890;SDS011;10605;52.968;8.844;2022-07-15T13:02:29;0.82;;;0.30;;
20890;SDS011;10605;52.968;8.844;2022-07-15T13:04:56;0.20;;;0.15;;
20890;SDS011;10605;52.968;8.844;2022-07-15T13:07:22;4.80;;;0.60;;
20890;SDS011;10605;52.968;8.844;2022-07-15T13:09:48;4.18;;;0.77;;
20890;SDS011;10605;52.968;8.844;2022-07-15T13:12:15;2.08;;;0.50;;
20890;SDS011;10605;52.968;8.844;2022-07-15T13:14:41;0.85;;;0.30;;
20890;SDS011;10605;52.968;8.844;2022-07-15T13:17:07;1.02;;;0.30;;
20890;SDS011;10605;52.968;8.844;2022-07-15T13:19:33;1.38;;;0.32;;
20890;SDS011;10605;52.968;8.844;2022-07-15T13:22:00;0.35;;;0.32;;
20890;SDS011;10605;52.968;8.844;2022-07-15T13:24:26;1.35;;;0.30;;
20890;SDS011;10605;52.968;8.844;2022-07-15T13:26:52;2.00;;;0.20;;
20890;SDS011;10605;52.968;8.844;2022-07-15T13:29:17;0.40;;;0.20;;
20890;SDS011;10605;52.968;8.844;2022-07-15T13:31:43;1.10;;;0.30;;
20890;SDS011;10605;52.968;8.844;2022-07-15T13:34:09;1.30;;;0.57;;
20890;SDS011;10605;52.968;8.844;2022-07-15T13:36:34;0.20;;;0.10;;
20890;SDS011;10605;52.968;8.844;2022-07-15T13:39:01;1.77;;;0.38;;
20890;SDS011;10605;52.968;8.844;2022-07-15T13:41:27;1.45;;;0.50;;
20890;SDS011;10605;52.968;8.844;2022-07-15T13:43:53;1.35;;;0.40;;
20890;SDS011;10605;52.968;8.844;2022-07-15T13:46:19;0.30;;;0.15;;
20890;SDS011;10605;52.968;8.844;2022-07-15T13:48:44;1.48;;;0.40;;
20890;SDS011;10605;52.968;8.844;2022-07-15T13:51:10;0.35;;;0.20;;
20890;SDS011;10605;52.968;8.844;2022-07-15T13:53:48;2.40;;;0.32;;
20890;SDS011;10605;52.968;8.844;2022-07-15T13:56:14;0.50;;;0.32;;
20890;SDS011;10605;52.968;8.844;2022-07-15T13:58:40;0.35;;;0.20;;
20890;SDS011;10605;52.968;8.844;2022-07-15T14:01:06;1.02;;;0.20;;
20890;SDS011;10605;52.968;8.844;2022-07-15T14:03:32;1.60;;;0.35;;
20890;SDS011;10605;52.968;8.844;2022-07-15T14:05:57;1.65;;;0.30;;
20890;SDS011;10605;52.968;8.844;2022-07-15T14:08:23;1.05;;;0.38;;
20890;SDS011;10605;52.968;8.844;2022-07-15T14:10:49;2.30;;;0.90;;
20890;SDS011;10605;52.968;8.844;2022-07-15T14:13:14;6.05;;;0.50;;
20890;SDS011;10605;52.968;8.844;2022-07-15T14:15:40;0.88;;;0.57;;
20890;SDS011;10605;52.968;8.844;2022-07-15T14:18:06;0.80;;;0.50;;
20890;SDS011;10605;52.968;8.844;2022-07-15T14:20:31;0.85;;;0.30;;
20890;SDS011;10605;52.968;8.844;2022-07-15T14:22:57;0.60;;;0.30;;
20890;SDS011;10605;52.968;8.844;2022-07-15T14:25:23;1.13;;;0.40;;
20890;SDS011;10605;52.968;8.844;2022-07-15T14:27:48;0.38;;;0.30;;
20890;SDS011;10605;52.968;8.844;2022-07-15T14:30:14;1.20;;;0.50;;
20890;SDS011;10605;52.968;8.844;2022-07-15T14:32:41;0.73;;;0.30;;
20890;SDS011;10605;52.968;8.844;2022-07-15T14:35:07;6.65;;;0.88;;
20890;SDS011;10605;52.968;8.844;2022-07-15T14:37:33;1.33;;;0.43;;
20890;SDS011;10605;52.968;8.844;2022-07-15T14:39:59;0.73;;;0.30;;
20890;SDS011;10605;52.968;8.844;2022-07-15T14:42:25;0.90;;;0.50;;
20890;SDS011;10605;52.968;8.844;2022-07-15T14:44:50;1.55;;;0.40;;
20890;SDS011;10605;52.968;8.844;2022-07-15T14:47:16;1.40;;;0.52;;
20890;SDS011;10605;52.968;8.844;2022-07-15T14:49:42;1.20;;;0.40;;
20890;SDS011;10605;52.968;8.844;2022-07-15T14:52:08;3.30;;;0.30;;
20890;SDS011;10605;52.968;8.844;2022-07-15T14:54:33;2.10;;;0.50;;
20890;SDS011;10605;52.968;8.844;2022-07-15T14:56:59;1.08;;;0.43;;
20890;SDS011;10605;52.968;8.844;2022-07-15T14:59:25;1.08;;;0.45;;
20890;SDS011;10605;52.968;8.844;2022-07-15T15:01:50;0.75;;;0.40;;
20890;SDS011;10605;52.968;8.844;2022-07-15T15:04:18;2.17;;;0.40;;
20890;SDS011;10605;52.968;8.844;2022-07-15T15:06:44;2.03;;;0.43;;
20890;SDS011;10605;52.968;8.844;2022-07-15T15:09:09;2.08;;;0.43;;
20890;SDS011;10605;52.968;8.844;2022-07-15T15:11:35;0.98;;;0.50;;
20890;SDS011;10605;52.968;8.844;2022-07-15T15:14:01;1.17;;;0.32;;
20890;SDS011;10605;52.968;8.844;2022-07-15T15:16:28;1.58;;;0.40;;
20890;SDS011;10605;52.968;8.844;2022-07-15T15:18:55;0.60;;;0.40;;
20890;SDS011;10605;52.968;8.844;2022-07-15T15:21:21;8.00;;;1.52;;
20890;SDS011;10605;52.968;8.844;2022-07-15T15:23:47;1.08;;;0.30;;
20890;SDS011;10605;52.968;8.844;2022-07-15T15:26:12;1.80;;;0.30;;
20890;SDS011;10605;52.968;8.844;2022-07-15T15:28:54;3.40;;;0.47;;
20890;SDS011;10605;52.968;8.844;2022-07-15T15:31:21;0.98;;;0.32;;
20890;SDS011;10605;52.968;8.844;2022-07-15T15:33:47;0.30;;;0.30;;
20890;SDS011;10605;52.968;8.844;2022-07-15T15:36:14;1.52;;;0.30;;
20890;SDS011;10605;52.968;8.844;2022-07-15T15:38:42;2.45;;;0.60;;
20890;SDS011;10605;52.968;8.844;2022-07-15T15:41:08;1.20;;;0.47;;
20890;SDS011;10605;52.968;8.844;2022-07-15T15:43:34;0.45;;;0.22;;